createdAt,value
2017-12-01T00:01:40.686Z,45.43
2017-12-01T00:04:08.997Z,45.37
2017-12-01T00:06:36.584Z,47.03
2017-12-01T00:09:04.151Z,46.60
2017-12-01T00:11:31.748Z,53.10
2017-12-01T00:13:59.338Z,44.50
2017-12-01T00:16:26.916Z,49.50
2017-12-01T00:18:54.527Z,43.83
2017-12-01T00:21:22.929Z,44.57
2017-12-01T00:23:50.501Z,46.63
2017-12-01T00:26:18.112Z,51.40
2017-12-01T00:28:45.702Z,52.40
2017-12-01T00:31:13.280Z,45.00
2017-12-01T00:33:40.870Z,50.70
2017-12-01T00:36:08.473Z,49.10
2017-12-01T00:38:36.065Z,51.13
2017-12-01T00:41:03.654Z,51.83
2017-12-01T00:43:31.214Z,48.00
2017-12-01T00:45:58.811Z,51.43
2017-12-01T00:48:27.222Z,53.00
2017-12-01T00:50:54.793Z,46.03
2017-12-01T00:53:22.353Z,49.23
2017-12-01T00:55:49.946Z,45.10
2017-12-01T00:58:17.525Z,56.97
2017-12-01T01:00:45.861Z,49.37
2017-12-01T01:03:13.425Z,51.83
2017-12-01T01:05:41.017Z,45.73
2017-12-01T01:08:08.572Z,50.20
2017-12-01T01:10:36.904Z,45.73
2017-12-01T01:13:04.490Z,58.50
2017-12-01T01:15:32.042Z,58.30
2017-12-01T01:17:59.684Z,54.73
2017-12-01T01:20:27.228Z,49.23
2017-12-01T01:22:54.912Z,51.07
2017-12-01T01:25:22.481Z,46.80
2017-12-01T01:27:50.054Z,48.97
2017-12-01T01:30:17.627Z,44.73
2017-12-01T01:32:45.204Z,54.67
2017-12-01T01:35:12.759Z,49.23
2017-12-01T01:37:40.354Z,55.40
2017-12-01T01:40:08.674Z,54.23
2017-12-01T01:42:36.274Z,56.33
2017-12-01T01:45:04.439Z,52.20
2017-12-01T01:47:33.814Z,57.00
2017-12-01T01:50:01.365Z,55.50
2017-12-01T01:52:28.915Z,49.87
2017-12-01T01:54:56.491Z,57.10
2017-12-01T01:57:24.110Z,58.30
2017-12-01T01:59:51.655Z,49.80
2017-12-01T02:02:20.013Z,49.57
2017-12-01T02:04:47.562Z,54.33
2017-12-01T02:07:15.138Z,58.60
2017-12-01T02:09:42.681Z,57.33
2017-12-01T02:12:10.266Z,54.70
2017-12-01T02:14:37.941Z,47.40
2017-12-01T02:17:05.516Z,47.93
2017-12-01T02:19:33.838Z,56.60
2017-12-01T02:22:01.408Z,48.93
2017-12-01T02:24:28.962Z,45.87
2017-12-01T02:26:56.539Z,49.67
2017-12-01T02:29:24.094Z,49.33
2017-12-01T02:31:51.652Z,45.40
2017-12-01T02:34:19.240Z,46.40
2017-12-01T02:36:46.846Z,50.80
2017-12-01T02:39:14.574Z,57.57
2017-12-01T02:41:42.906Z,47.60
2017-12-01T02:44:10.514Z,54.43
2017-12-01T02:46:38.825Z,54.30
2017-12-01T02:49:06.450Z,44.20
2017-12-01T02:51:34.749Z,50.23
2017-12-01T02:54:02.317Z,47.87
2017-12-01T02:56:29.894Z,52.17
2017-12-01T02:58:57.462Z,49.10
2017-12-01T03:01:25.032Z,48.17
2017-12-01T03:03:52.574Z,36.87
2017-12-01T03:06:20.241Z,45.90
2017-12-01T03:08:47.803Z,43.97
2017-12-01T03:11:15.358Z,41.27
2017-12-01T03:13:42.954Z,46.23
2017-12-01T03:16:10.514Z,43.50
2017-12-01T03:18:38.048Z,50.60
2017-12-01T03:21:05.606Z,44.43
2017-12-01T03:23:33.150Z,41.80
2017-12-01T03:26:00.730Z,52.83
2017-12-01T03:28:29.191Z,43.10
2017-12-01T03:30:56.794Z,61.40
2017-12-01T03:33:24.349Z,49.57
2017-12-01T03:35:51.907Z,57.07
2017-12-01T03:38:19.462Z,52.30
2017-12-01T03:40:47.452Z,54.17
2017-12-01T03:43:15.010Z,63.80
2017-12-01T03:45:42.586Z,57.83
2017-12-01T03:48:10.140Z,59.00
2017-12-01T03:50:37.678Z,63.70
2017-12-01T03:53:05.325Z,54.10
2017-12-01T03:55:32.934Z,56.23
2017-12-01T03:58:01.765Z,63.37
2017-12-01T04:00:30.093Z,46.23
2017-12-01T04:02:57.662Z,47.70
2017-12-01T04:05:25.214Z,50.83
2017-12-01T04:07:52.767Z,48.60
2017-12-01T04:10:20.356Z,50.53
2017-12-01T04:12:48.680Z,45.90
2017-12-01T04:15:16.228Z,43.70
2017-12-01T04:17:43.766Z,45.30
2017-12-01T04:20:11.341Z,47.50
2017-12-01T04:22:38.908Z,46.03
2017-12-01T04:25:06.772Z,49.13
2017-12-01T04:27:34.421Z,46.93
2017-12-01T04:30:01.993Z,39.17
2017-12-01T04:32:30.309Z,47.37
2017-12-01T04:34:57.869Z,49.80
2017-12-01T04:37:26.186Z,53.27
2017-12-01T04:39:54.498Z,38.73
2017-12-01T04:42:22.050Z,47.27
2017-12-01T04:44:49.626Z,43.43
2017-12-01T04:47:17.207Z,42.03
2017-12-01T04:49:44.786Z,40.27
2017-12-01T04:52:12.396Z,47.80
2017-12-01T04:54:39.953Z,42.63
2017-12-01T04:57:08.270Z,46.27
2017-12-01T04:59:35.824Z,55.23
2017-12-01T05:02:03.385Z,52.47
2017-12-01T05:04:30.948Z,47.33
2017-12-01T05:06:58.506Z,48.90
2017-12-01T05:09:26.138Z,43.90
2017-12-01T05:11:53.689Z,49.57
2017-12-01T05:14:22.086Z,54.27
2017-12-01T05:16:49.648Z,60.63
2017-12-01T05:19:17.305Z,74.60
2017-12-01T05:21:44.855Z,78.80
2017-12-01T05:24:12.427Z,71.07
2017-12-01T05:26:40.015Z,63.47
2017-12-01T05:29:07.585Z,57.07
2017-12-01T05:31:35.201Z,78.07
2017-12-01T05:34:02.753Z,74.07
2017-12-01T05:36:30.317Z,70.80
2017-12-01T05:38:57.869Z,65.33
2017-12-01T05:41:25.442Z,84.20
2017-12-01T05:43:53.005Z,67.50
2017-12-01T05:46:20.562Z,77.00
2017-12-01T05:48:48.110Z,73.33
2017-12-01T05:51:15.763Z,76.37
2017-12-01T05:53:44.086Z,68.57
2017-12-01T05:56:11.634Z,77.83
2017-12-01T05:58:39.194Z,77.60
2017-12-01T06:01:06.750Z,82.30
2017-12-01T06:03:34.333Z,88.37
2017-12-01T06:06:01.857Z,85.67
2017-12-01T06:08:29.418Z,74.47
2017-12-01T06:10:56.951Z,68.47
2017-12-01T06:13:25.273Z,76.83
2017-12-01T06:15:52.838Z,89.33
2017-12-01T06:18:20.443Z,101.53
2017-12-01T06:20:48.005Z,98.57
2017-12-01T06:23:15.562Z,89.53
2017-12-01T06:25:43.110Z,90.90
2017-12-01T06:28:10.706Z,83.87
2017-12-01T06:30:39.010Z,85.03
2017-12-01T06:33:06.551Z,93.30
2017-12-01T06:35:34.221Z,85.20
2017-12-01T06:38:01.828Z,107.67
2017-12-01T06:40:29.344Z,70.47
2017-12-01T06:42:56.937Z,105.93
2017-12-01T06:45:24.521Z,99.13
2017-12-01T06:47:52.126Z,86.13
2017-12-01T06:50:19.690Z,117.73
2017-12-01T06:52:47.281Z,86.70
2017-12-01T06:55:14.846Z,99.00
2017-12-01T06:57:42.520Z,82.13
2017-12-01T07:00:10.076Z,85.73
2017-12-01T07:02:37.638Z,123.60
2017-12-01T07:05:05.219Z,113.77
2017-12-01T07:07:32.801Z,100.83
2017-12-01T07:10:00.366Z,110.40
2017-12-01T07:12:27.933Z,116.17
2017-12-01T07:14:55.526Z,89.37
2017-12-01T07:17:23.104Z,88.37
2017-12-01T07:19:50.665Z,97.00
2017-12-01T07:22:18.270Z,89.20
2017-12-01T07:24:46.591Z,104.33
2017-12-01T07:27:14.166Z,111.73
2017-12-01T07:29:41.716Z,107.40
2017-12-01T07:32:09.306Z,142.33
2017-12-01T07:34:41.012Z,142.40
2017-12-01T07:37:08.672Z,110.33
2017-12-01T07:39:36.243Z,142.63
2017-12-01T07:42:03.839Z,147.53
2017-12-01T07:44:36.880Z,149.60
2017-12-01T07:47:04.518Z,165.43
2017-12-01T07:49:32.842Z,133.17
2017-12-01T07:52:00.420Z,141.50
2017-12-01T07:54:27.982Z,145.70
2017-12-01T07:56:55.554Z,116.87
2017-12-01T07:59:23.139Z,125.50
2017-12-01T08:01:51.494Z,133.50
2017-12-01T08:04:19.068Z,122.77
2017-12-01T08:06:47.397Z,131.03
2017-12-01T08:09:15.021Z,139.53
2017-12-01T08:11:43.357Z,118.20
2017-12-01T08:14:10.918Z,108.77
2017-12-01T08:16:50.347Z,137.47
2017-12-01T08:19:20.733Z,116.33
2017-12-01T08:22:00.107Z,111.60
2017-12-01T08:24:40.417Z,130.70
2017-12-01T08:27:08.752Z,130.13
2017-12-01T08:29:36.315Z,120.43
2017-12-01T08:32:03.873Z,124.27
2017-12-01T08:34:31.702Z,123.37
2017-12-01T08:36:59.277Z,97.97
2017-12-01T08:39:27.221Z,101.83
2017-12-01T08:41:56.571Z,105.30
2017-12-01T08:44:24.991Z,102.23
2017-12-01T08:46:53.333Z,118.27
2017-12-01T08:49:20.927Z,108.17
2017-12-01T08:51:49.246Z,106.07
2017-12-01T08:54:16.853Z,93.60
2017-12-01T08:56:44.424Z,95.67
2017-12-01T08:59:12.893Z,81.80
2017-12-01T09:01:40.444Z,81.00
2017-12-01T09:04:08.064Z,86.27
2017-12-01T09:06:35.610Z,81.73
2017-12-01T09:09:04.861Z,84.37
2017-12-01T09:11:32.437Z,90.33
2017-12-01T09:13:59.998Z,87.93
2017-12-01T09:16:27.611Z,73.57
2017-12-01T09:18:55.155Z,82.77
2017-12-01T09:21:22.734Z,81.57
2017-12-01T09:23:50.338Z,70.07
2017-12-01T09:26:17.955Z,82.13
2017-12-01T09:28:45.511Z,81.83
2017-12-01T09:31:13.092Z,64.97
2017-12-01T09:33:40.639Z,71.87
2017-12-01T09:36:08.430Z,76.67
2017-12-01T09:38:35.986Z,79.17
2017-12-01T09:41:03.544Z,76.07
2017-12-01T09:43:31.115Z,77.13
2017-12-01T09:45:58.780Z,71.13
2017-12-01T09:48:26.450Z,83.27
2017-12-01T09:50:54.037Z,74.83
2017-12-01T09:53:22.410Z,81.50
2017-12-01T09:55:50.827Z,82.63
2017-12-01T09:58:18.400Z,88.60
2017-12-01T10:00:45.982Z,79.70
2017-12-01T10:03:13.568Z,78.67
2017-12-01T10:05:41.148Z,70.33
2017-12-01T10:08:09.488Z,82.00
2017-12-01T10:10:37.058Z,83.00
2017-12-01T10:13:04.662Z,77.80
2017-12-01T10:15:32.217Z,84.93
2017-12-01T10:17:59.783Z,79.63
2017-12-01T10:20:27.356Z,77.03
2017-12-01T10:22:54.957Z,79.97
2017-12-01T10:25:22.520Z,89.90
2017-12-01T10:27:50.177Z,89.83
2017-12-01T10:30:17.762Z,95.63
2017-12-01T10:32:45.366Z,99.07
2017-12-01T10:35:12.961Z,87.10
2017-12-01T10:37:41.657Z,98.77
2017-12-01T10:40:09.214Z,93.90
2017-12-01T10:42:36.780Z,88.97
2017-12-01T10:45:04.366Z,95.57
2017-12-01T10:47:32.690Z,84.63
2017-12-01T10:50:00.283Z,99.27
2017-12-01T10:52:27.842Z,103.77
2017-12-01T10:54:55.438Z,86.13
2017-12-01T10:57:23.816Z,81.00
2017-12-01T10:59:51.370Z,91.57
2017-12-01T11:02:19.734Z,94.80
2017-12-01T11:04:47.305Z,82.00
2017-12-01T11:07:15.641Z,90.00
2017-12-01T11:09:43.205Z,83.57
2017-12-01T11:12:10.779Z,95.80
2017-12-01T11:14:38.347Z,89.60
2017-12-01T11:17:05.912Z,88.83
2017-12-01T11:19:33.470Z,86.50
2017-12-01T11:22:01.062Z,83.47
2017-12-01T11:24:28.817Z,87.13
2017-12-01T11:26:57.150Z,81.80
2017-12-01T11:29:24.732Z,81.70
2017-12-01T11:31:52.300Z,94.67
2017-12-01T11:34:19.892Z,84.50
2017-12-01T11:36:48.312Z,87.03
2017-12-01T11:39:15.898Z,96.93
2017-12-01T11:41:43.461Z,85.17
2017-12-01T11:44:11.110Z,84.37
2017-12-01T11:46:38.697Z,79.07
2017-12-01T11:49:07.013Z,85.03
2017-12-01T11:51:34.585Z,76.20
2017-12-01T11:54:02.168Z,77.20
2017-12-01T11:56:29.746Z,74.00
2017-12-01T11:58:57.390Z,80.93
2017-12-01T12:01:25.325Z,81.20
2017-12-01T12:03:52.918Z,77.07
2017-12-01T12:06:20.593Z,77.53
2017-12-01T12:08:48.178Z,87.07
2017-12-01T12:11:16.536Z,74.33
2017-12-01T12:13:44.200Z,85.90
2017-12-01T12:16:11.764Z,79.93
2017-12-01T12:18:39.354Z,82.57
2017-12-01T12:21:11.076Z,67.93
2017-12-01T12:23:38.638Z,79.10
2017-12-01T12:26:06.263Z,73.47
2017-12-01T12:28:33.861Z,78.53
2017-12-01T12:31:01.425Z,66.90
2017-12-01T12:33:29.001Z,86.03
2017-12-01T12:35:57.361Z,72.27
2017-12-01T12:38:24.937Z,77.33
2017-12-01T12:40:53.279Z,74.57
2017-12-01T12:43:21.621Z,71.53
2017-12-01T12:45:49.176Z,74.47
2017-12-01T12:48:16.779Z,82.10
2017-12-01T12:50:44.326Z,70.53
2017-12-01T12:53:11.882Z,76.87
2017-12-01T12:55:39.473Z,81.67
2017-12-01T12:58:14.945Z,77.87
2017-12-01T13:00:42.570Z,71.37
2017-12-01T13:03:10.126Z,82.60
2017-12-01T13:05:37.703Z,72.23
2017-12-01T13:08:05.327Z,70.33
2017-12-01T13:10:32.910Z,75.23
2017-12-01T13:13:01.741Z,74.20
2017-12-01T13:15:29.398Z,67.23
2017-12-01T13:17:56.953Z,73.37
2017-12-01T13:20:24.594Z,69.53
2017-12-01T13:22:52.150Z,70.10
2017-12-01T13:25:19.703Z,68.40
2017-12-01T13:27:47.369Z,75.13
2017-12-01T13:30:14.946Z,68.13
2017-12-01T13:32:42.499Z,72.23
2017-12-01T13:35:10.066Z,68.40
2017-12-01T13:37:37.656Z,69.90
2017-12-01T13:40:06.038Z,69.97
2017-12-01T13:42:34.350Z,76.40
2017-12-01T13:45:01.973Z,69.37
2017-12-01T13:47:29.598Z,74.30
2017-12-01T13:49:57.918Z,67.77
2017-12-01T13:52:26.283Z,63.87
2017-12-01T13:54:53.833Z,80.53
2017-12-01T13:57:21.418Z,71.60
2017-12-01T13:59:49.785Z,77.87
2017-12-01T14:02:17.369Z,74.37
2017-12-01T14:04:44.995Z,65.20
2017-12-01T14:07:12.713Z,67.47
2017-12-01T14:09:40.295Z,62.67
2017-12-01T14:12:08.349Z,77.73
2017-12-01T14:14:35.990Z,75.93
2017-12-01T14:17:03.609Z,70.43
2017-12-01T14:19:31.199Z,73.20
2017-12-01T14:21:59.534Z,67.50
2017-12-01T14:24:27.135Z,73.03
2017-12-01T14:26:54.793Z,81.57
2017-12-01T14:29:22.368Z,70.83
2017-12-01T14:31:50.706Z,63.93
2017-12-01T14:34:18.319Z,69.10
2017-12-01T14:36:46.652Z,68.10
2017-12-01T14:39:14.284Z,67.10
2017-12-01T14:41:41.842Z,67.63
2017-12-01T14:44:09.465Z,75.73
2017-12-01T14:46:37.068Z,73.80
2017-12-01T14:49:04.817Z,72.40
2017-12-01T14:51:32.430Z,66.97
2017-12-01T14:54:00.013Z,71.43
2017-12-01T14:56:28.384Z,71.87
2017-12-01T14:59:07.570Z,76.53
2017-12-01T15:01:35.196Z,79.37
2017-12-01T15:04:03.514Z,76.73
2017-12-01T15:06:31.866Z,80.20
2017-12-01T15:08:59.438Z,67.77
2017-12-01T15:11:27.093Z,75.33
2017-12-01T15:13:54.659Z,78.27
2017-12-01T15:16:22.285Z,73.20
2017-12-01T15:18:49.847Z,75.97
2017-12-01T15:21:17.424Z,70.47
2017-12-01T15:23:45.781Z,76.13
2017-12-01T15:26:13.364Z,65.97
2017-12-01T15:28:41.721Z,64.90
2017-12-01T15:31:09.285Z,65.60
2017-12-01T15:33:37.660Z,71.40
2017-12-01T15:36:05.233Z,74.50
2017-12-01T15:38:32.942Z,70.00
2017-12-01T15:41:00.513Z,70.10
2017-12-01T15:43:28.135Z,65.97
2017-12-01T15:45:56.453Z,77.87
2017-12-01T15:48:24.043Z,70.07
2017-12-01T15:50:51.613Z,76.30
2017-12-01T15:53:19.263Z,72.47
2017-12-01T15:55:47.482Z,73.50
2017-12-01T15:58:15.050Z,79.73
2017-12-01T16:00:42.662Z,80.43
2017-12-01T16:03:10.233Z,75.60
2017-12-01T16:05:37.885Z,84.83
2017-12-01T16:08:05.458Z,80.20
2017-12-01T16:10:33.009Z,81.60
2017-12-01T16:13:00.573Z,76.50
2017-12-01T16:15:28.166Z,88.40
2017-12-01T16:17:56.505Z,84.30
2017-12-01T16:20:24.046Z,80.03
2017-12-01T16:22:51.676Z,80.13
2017-12-01T16:25:19.259Z,79.77
2017-12-01T16:27:46.817Z,83.40
2017-12-01T16:30:14.419Z,77.63
2017-12-01T16:32:42.585Z,69.97
2017-12-01T16:35:09.980Z,82.10
2017-12-01T16:37:37.521Z,72.50
2017-12-01T16:40:05.894Z,72.57
2017-12-01T16:42:33.468Z,89.70
2017-12-01T16:45:01.790Z,90.80
2017-12-01T16:47:29.430Z,89.00
2017-12-01T16:49:57.039Z,83.10
2017-12-01T16:52:24.608Z,82.83
2017-12-01T16:54:52.216Z,83.60
2017-12-01T16:57:19.753Z,83.20
2017-12-01T16:59:48.096Z,88.63
2017-12-01T17:02:15.672Z,80.03
2017-12-01T17:04:43.227Z,90.40
2017-12-01T17:07:10.806Z,85.83
2017-12-01T17:09:39.207Z,89.67
2017-12-01T17:12:06.802Z,75.30
2017-12-01T17:14:34.336Z,92.40
2017-12-01T17:17:01.906Z,82.60
2017-12-01T17:19:29.486Z,79.73
2017-12-01T17:21:57.072Z,76.20
2017-12-01T17:24:24.630Z,82.23
2017-12-01T17:26:52.233Z,83.10
2017-12-01T17:29:20.534Z,78.93
2017-12-01T17:31:48.116Z,88.17
2017-12-01T17:34:15.705Z,84.10
2017-12-01T17:36:44.069Z,77.63
2017-12-01T17:39:11.645Z,81.90
2017-12-01T17:41:40.027Z,76.13
2017-12-01T17:44:07.578Z,77.37
2017-12-01T17:46:35.145Z,83.50
2017-12-01T17:49:03.495Z,81.83
2017-12-01T17:51:31.055Z,87.27
2017-12-01T17:53:58.711Z,78.17
2017-12-01T17:56:26.314Z,73.67
2017-12-01T17:58:54.648Z,84.23
2017-12-01T18:01:22.221Z,78.53
2017-12-01T18:03:49.846Z,75.37
2017-12-01T18:06:17.373Z,83.83
2017-12-01T18:08:44.937Z,72.63
2017-12-01T18:11:13.294Z,74.83
2017-12-01T18:13:40.870Z,74.00
2017-12-01T18:16:08.417Z,78.00
2017-12-01T18:18:35.970Z,72.33
2017-12-01T18:21:03.578Z,68.97
2017-12-01T18:23:31.146Z,72.87
2017-12-01T18:25:58.730Z,72.13
2017-12-01T18:28:27.040Z,70.17
2017-12-01T18:30:54.617Z,66.83
2017-12-01T18:33:22.956Z,67.82
2017-12-01T18:35:50.534Z,70.73
2017-12-01T18:38:21.922Z,67.00
2017-12-01T18:40:50.262Z,83.23
2017-12-01T18:43:17.850Z,78.70
2017-12-01T18:45:45.402Z,78.33
2017-12-01T18:48:12.994Z,72.10
2017-12-01T18:50:40.546Z,70.00
2017-12-01T18:53:08.166Z,78.00
2017-12-01T18:55:35.738Z,73.23
2017-12-01T18:58:03.325Z,78.03
2017-12-01T19:00:31.690Z,80.10
2017-12-01T19:03:00.070Z,75.83
2017-12-01T19:05:28.430Z,83.03
2017-12-01T19:07:56.025Z,82.60
2017-12-01T19:10:24.373Z,85.43
2017-12-01T19:12:51.954Z,89.62
2017-12-01T19:15:20.371Z,85.03
2017-12-01T19:17:47.979Z,83.87
2017-12-01T19:20:15.559Z,90.07
2017-12-01T19:22:43.202Z,87.77
2017-12-01T19:25:10.773Z,88.07
2017-12-01T19:27:39.173Z,81.73
2017-12-01T19:30:07.516Z,85.60
2017-12-01T19:32:39.648Z,79.23
2017-12-01T19:35:18.186Z,87.33
2017-12-01T19:37:48.018Z,67.53
2017-12-01T19:40:19.229Z,74.57
2017-12-01T19:42:46.845Z,64.27
2017-12-01T19:45:15.237Z,69.00
2017-12-01T19:47:43.617Z,69.63
2017-12-01T19:50:12.687Z,74.60
2017-12-01T19:52:40.253Z,81.70
2017-12-01T19:55:07.855Z,79.07
2017-12-01T19:57:38.385Z,79.83
2017-12-01T20:00:05.983Z,67.60
2017-12-01T20:02:33.620Z,77.30
2017-12-01T20:05:02.081Z,73.27
2017-12-01T20:07:29.613Z,82.00
2017-12-01T20:09:57.194Z,92.73
2017-12-01T20:12:24.780Z,81.93
2017-12-01T20:14:52.340Z,61.93
2017-12-01T20:17:19.918Z,76.57
2017-12-01T20:19:48.540Z,81.97
2017-12-01T20:22:20.300Z,84.03
2017-12-01T20:24:48.725Z,65.60
2017-12-01T20:27:16.280Z,72.83
2017-12-01T20:29:43.880Z,65.70
2017-12-01T20:32:11.448Z,73.93
2017-12-01T20:34:39.013Z,68.47
2017-12-01T20:37:06.589Z,69.87
2017-12-01T20:39:34.945Z,76.23
2017-12-01T20:42:02.513Z,78.13
2017-12-01T20:44:30.129Z,94.77
2017-12-01T20:46:57.729Z,103.00
2017-12-01T20:49:25.315Z,84.97
2017-12-01T20:51:53.718Z,90.53
2017-12-01T20:54:21.393Z,89.57
2017-12-01T20:56:48.987Z,92.23
2017-12-01T20:59:16.565Z,97.77
2017-12-01T21:01:44.189Z,83.40
2017-12-01T21:04:11.774Z,94.37
2017-12-01T21:06:39.346Z,86.50
2017-12-01T21:09:06.886Z,76.33
2017-12-01T21:11:38.401Z,88.47
2017-12-01T21:14:06.082Z,71.10
2017-12-01T21:16:33.744Z,66.83
2017-12-01T21:19:01.407Z,87.07
2017-12-01T21:21:29.749Z,79.13
2017-12-01T21:23:58.075Z,80.63
2017-12-01T21:26:25.661Z,76.37
2017-12-01T21:28:53.258Z,95.13
2017-12-01T21:31:21.774Z,96.17
2017-12-01T21:33:49.466Z,84.47
2017-12-01T21:36:17.096Z,92.33
2017-12-01T21:38:44.742Z,84.67
2017-12-01T21:41:12.404Z,75.03
2017-12-01T21:43:40.026Z,81.23
2017-12-01T21:46:07.663Z,84.70
2017-12-01T21:48:35.285Z,73.73
2017-12-01T21:51:02.885Z,81.13
2017-12-01T21:53:33.330Z,75.63
2017-12-01T21:56:00.921Z,86.63
2017-12-01T21:58:29.364Z,77.60
2017-12-01T22:00:56.972Z,69.57
2017-12-01T22:03:25.289Z,78.70
2017-12-01T22:05:53.561Z,85.60
2017-12-01T22:08:21.189Z,87.13
2017-12-01T22:10:49.617Z,90.17
2017-12-01T22:13:17.194Z,105.73
2017-12-01T22:15:44.840Z,89.90
2017-12-01T22:18:12.624Z,101.33
2017-12-01T22:20:41.325Z,87.00
2017-12-01T22:23:10.001Z,104.13
2017-12-01T22:25:37.652Z,99.73
2017-12-01T22:28:05.318Z,99.13
2017-12-01T22:30:33.679Z,89.50
2017-12-01T22:33:01.255Z,89.80
2017-12-01T22:35:28.890Z,77.10
2017-12-01T22:37:56.504Z,72.80
2017-12-01T22:40:24.921Z,61.93
2017-12-01T22:42:52.504Z,77.00
2017-12-01T22:45:20.342Z,71.00
2017-12-01T22:47:47.928Z,75.90
2017-12-01T22:50:15.551Z,82.20
2017-12-01T22:52:43.137Z,66.00
2017-12-01T22:55:10.710Z,71.60
2017-12-01T22:57:40.117Z,70.43
2017-12-01T23:00:07.714Z,76.93
2017-12-01T23:02:35.295Z,79.27
2017-12-01T23:05:03.657Z,70.17
2017-12-01T23:07:31.209Z,70.17
2017-12-01T23:09:58.838Z,64.73
2017-12-01T23:12:26.410Z,69.93
2017-12-01T23:14:54.911Z,66.67
2017-12-01T23:17:22.542Z,75.67
2017-12-01T23:19:50.150Z,80.43
2017-12-01T23:22:17.752Z,70.33
2017-12-01T23:24:45.403Z,88.30
2017-12-01T23:27:13.046Z,75.63
2017-12-01T23:29:41.563Z,76.33
2017-12-01T23:32:09.163Z,89.17
2017-12-01T23:34:36.741Z,88.90
2017-12-01T23:37:05.069Z,86.77
2017-12-01T23:39:32.651Z,86.53
2017-12-01T23:42:00.237Z,92.47
2017-12-01T23:44:27.848Z,119.07
2017-12-01T23:46:55.445Z,133.00
2017-12-01T23:49:23.040Z,140.40
2017-12-01T23:51:51.402Z,139.50
2017-12-01T23:54:18.988Z,138.60
2017-12-01T23:56:47.310Z,129.13
2017-12-01T23:59:14.891Z,113.20
